Аэропорт: Домодедово. Москва

ICAO: UUDD

METAR:
2020-10-19 22:30:00
UUDD 192230Z 25007MPS CAVOK 03/M01 Q1010 R32L/CLRD60 NOSIG
METAR:
2020-10-19 19:58:00
TAF UUDD 191958Z 1921/2103 24004G09MPS 8000 FEW006 BKN020 TX04/2012Z TNM01/2003Z TEMPO 1921/2006 26009G14MPS -SHRASN FEW006 BKN016CB TEMPO 2006/2016 28010G16MPS 1500 SHSNRA FEW004 BKN016CB BECMG 2016/2018 30005G11MPS